Previous Day
Next Day
Current Day
SHEF ID: TSSO2 TISHOMINGO
STATION TYPE: Mesonet
PRECIP AIR-TEMP WIND-DIRWIND-SPEED REL-HUMID SOLAR-RAD
in F deg mph % W/m2
Raw-Meson Raw-Meson Raw-Meson Raw-Meson Raw-Meson Raw-Meson
(US/Central)
05/20 00:00 0.00 69.35 137.75 3.63 86.00 0.00
05/20 01:00 0.00 68.41 125.00 2.68 88.00 0.00
05/20 02:00 0.00 68.05 90.50 2.18 89.75 0.00
05/20 03:00 0.00 67.50 105.50 4.53 90.50 0.00
05/20 04:00 0.01 67.41 116.25 5.20 91.75 0.00
05/20 05:00 0.00 66.65 125.25 5.93 91.25 0.00
05/20 06:00 0.05 65.44 109.00 6.15 91.75 0.00
05/20 07:00 0.01 64.31 72.25 5.48 95.25 3.50
05/20 08:00 0.02 63.99 29.25 3.63 96.00 28.75
05/20 09:00 0.01 64.67 25.50 4.08 96.00 79.00
05/20 10:00 0.00 65.93 47.50 6.38 92.75 162.25
05/20 11:00 0.01 66.56 43.25 5.14 91.25 175.00
05/20 12:00 0.03 67.14 165.25 3.02 91.50 216.00
05/20 13:00 0.00 68.09 268.00 2.46 90.25 415.25
05/20 14:00 0.00 70.43 97.25 3.64 83.75 584.25
05/20 15:00 0.00 70.79 123.00 5.99 84.75 343.25
05/20 16:00 0.00 71.78 129.00 5.54 81.75 310.75
05/20 17:00 0.00 72.37 134.25 3.80 81.00 399.50
05/20 18:00 0.00 72.28 109.00 6.32 82.00 318.75
05/20 19:00 0.00 71.24 110.75 5.93 84.00 166.25
05/20 20:00 0.00 70.75 127.25 4.14 86.50 91.75
05/20 21:00 0.00 69.49 123.00 3.86 91.00 7.25
05/20 22:00 0.00 68.77 105.75 5.31 94.25 0.00
05/20 23:00 ---- 68.05 116.75 4.86 95.25 0.00